sensor_id;sensor_type;location;lat;lon;timestamp;temperature;humidity
35541;DHT22;21650;48.840;9.162;2023-03-26T00:00:41;7.90;99.90
35541;DHT22;21650;48.840;9.162;2023-03-26T00:03:11;7.90;99.90
35541;DHT22;21650;48.840;9.162;2023-03-26T00:05:38;7.90;99.90
35541;DHT22;21650;48.840;9.162;2023-03-26T00:08:04;7.90;99.90
35541;DHT22;21650;48.840;9.162;2023-03-26T00:10:30;7.90;99.90
35541;DHT22;21650;48.840;9.162;2023-03-26T00:12:55;7.90;99.90
35541;DHT22;21650;48.840;9.162;2023-03-26T00:15:21;7.90;99.90
35541;DHT22;21650;48.840;9.162;2023-03-26T00:17:46;7.80;99.90
35541;DHT22;21650;48.840;9.162;2023-03-26T00:20:12;7.80;99.90
35541;DHT22;21650;48.840;9.162;2023-03-26T00:22:39;7.80;99.90
35541;DHT22;21650;48.840;9.162;2023-03-26T00:25:06;7.80;99.90
35541;DHT22;21650;48.840;9.162;2023-03-26T00:27:32;7.80;99.90
35541;DHT22;21650;48.840;9.162;2023-03-26T00:29:59;7.80;99.90
35541;DHT22;21650;48.840;9.162;2023-03-26T00:32:28;7.80;99.90
35541;DHT22;21650;48.840;9.162;2023-03-26T00:34:55;7.80;99.90
35541;DHT22;21650;48.840;9.162;2023-03-26T00:37:22;7.70;99.90
35541;DHT22;21650;48.840;9.162;2023-03-26T00:39:54;7.70;99.90
35541;DHT22;21650;48.840;9.162;2023-03-26T00:42:26;7.70;99.90
35541;DHT22;21650;48.840;9.162;2023-03-26T00:44:52;7.70;99.90
35541;DHT22;21650;48.840;9.162;2023-03-26T00:47:27;7.70;99.90
35541;DHT22;21650;48.840;9.162;2023-03-26T00:49:53;7.70;99.90
35541;DHT22;21650;48.840;9.162;2023-03-26T00:52:19;7.70;99.90
35541;DHT22;21650;48.840;9.162;2023-03-26T00:54:54;7.60;99.90
35541;DHT22;21650;48.840;9.162;2023-03-26T00:57:21;7.70;99.90
35541;DHT22;21650;48.840;9.162;2023-03-26T00:59:49;7.60;99.90
35541;DHT22;21650;48.840;9.162;2023-03-26T01:02:18;7.70;99.90
35541;DHT22;21650;48.840;9.162;2023-03-26T01:04:49;7.60;99.90
35541;DHT22;21650;48.840;9.162;2023-03-26T01:07:21;7.70;99.90
35541;DHT22;21650;48.840;9.162;2023-03-26T01:09:54;7.70;99.90
35541;DHT22;21650;48.840;9.162;2023-03-26T01:12:23;7.70;99.90
35541;DHT22;21650;48.840;9.162;2023-03-26T01:14:51;7.70;99.90
35541;DHT22;21650;48.840;9.162;2023-03-26T01:17:17;7.70;99.90
35541;DHT22;21650;48.840;9.162;2023-03-26T01:22:24;7.50;99.90
35541;DHT22;21650;48.840;9.162;2023-03-26T01:24:50;7.60;99.90
35541;DHT22;21650;48.840;9.162;2023-03-26T01:27:46;7.60;99.90
35541;DHT22;21650;48.840;9.162;2023-03-26T01:41:03;7.60;99.90
35541;DHT22;21650;48.840;9.162;2023-03-26T01:46:20;7.60;99.90
35541;DHT22;21650;48.840;9.162;2023-03-26T01:48:47;7.60;99.90
35541;DHT22;21650;48.840;9.162;2023-03-26T01:51:25;7.50;99.90
35541;DHT22;21650;48.840;9.162;2023-03-26T01:53:51;7.50;99.90
35541;DHT22;21650;48.840;9.162;2023-03-26T01:56:27;7.60;99.90
35541;DHT22;21650;48.840;9.162;2023-03-26T02:07:39;7.40;99.90
35541;DHT22;21650;48.840;9.162;2023-03-26T02:10:10;7.50;99.90
35541;DHT22;21650;48.840;9.162;2023-03-26T02:12:38;7.50;99.90
35541;DHT22;21650;48.840;9.162;2023-03-26T02:15:05;7.60;99.90
35541;DHT22;21650;48.840;9.162;2023-03-26T02:17:31;7.60;99.90
35541;DHT22;21650;48.840;9.162;2023-03-26T02:19:57;7.80;99.90
35541;DHT22;21650;48.840;9.162;2023-03-26T02:22:23;7.70;99.90
35541;DHT22;21650;48.840;9.162;2023-03-26T02:24:54;7.80;99.90
35541;DHT22;21650;48.840;9.162;2023-03-26T02:27:20;7.80;99.90
35541;DHT22;21650;48.840;9.162;2023-03-26T02:29:46;7.80;99.90
35541;DHT22;21650;48.840;9.162;2023-03-26T02:32:12;7.80;99.90
35541;DHT22;21650;48.840;9.162;2023-03-26T02:34:41;7.80;99.90
35541;DHT22;21650;48.840;9.162;2023-03-26T02:37:08;7.80;99.90
35541;DHT22;21650;48.840;9.162;2023-03-26T02:39:34;7.90;99.90
35541;DHT22;21650;48.840;9.162;2023-03-26T02:41:59;7.90;99.90
35541;DHT22;21650;48.840;9.162;2023-03-26T02:44:25;7.90;99.90
35541;DHT22;21650;48.840;9.162;2023-03-26T02:46:51;7.90;99.90
35541;DHT22;21650;48.840;9.162;2023-03-26T02:49:17;7.90;99.90
35541;DHT22;21650;48.840;9.162;2023-03-26T02:51:42;7.90;99.90
35541;DHT22;21650;48.840;9.162;2023-03-26T02:57:30;7.80;99.90
35541;DHT22;21650;48.840;9.162;2023-03-26T02:59:56;7.80;99.90
35541;DHT22;21650;48.840;9.162;2023-03-26T03:02:22;7.80;99.90
35541;DHT22;21650;48.840;9.162;2023-03-26T03:04:48;7.80;99.90
35541;DHT22;21650;48.840;9.162;2023-03-26T03:07:14;7.70;99.90
35541;DHT22;21650;48.840;9.162;2023-03-26T03:09:40;7.80;99.90
35541;DHT22;21650;48.840;9.162;2023-03-26T03:12:06;7.80;99.90
35541;DHT22;21650;48.840;9.162;2023-03-26T03:14:31;7.80;99.90
35541;DHT22;21650;48.840;9.162;2023-03-26T03:16:57;7.80;99.90
35541;DHT22;21650;48.840;9.162;2023-03-26T03:19:22;7.80;99.90
35541;DHT22;21650;48.840;9.162;2023-03-26T03:21:48;7.80;99.90
35541;DHT22;21650;48.840;9.162;2023-03-26T03:24:13;7.90;99.90
35541;DHT22;21650;48.840;9.162;2023-03-26T03:26:43;7.80;99.90
35541;DHT22;21650;48.840;9.162;2023-03-26T03:29:10;7.90;99.90
35541;DHT22;21650;48.840;9.162;2023-03-26T03:31:36;7.90;99.90
35541;DHT22;21650;48.840;9.162;2023-03-26T03:34:02;7.90;99.90
35541;DHT22;21650;48.840;9.162;2023-03-26T03:36:27;7.90;99.90
35541;DHT22;21650;48.840;9.162;2023-03-26T03:38:55;7.90;99.90
35541;DHT22;21650;48.840;9.162;2023-03-26T03:41:27;7.90;99.90
35541;DHT22;21650;48.840;9.162;2023-03-26T03:43:52;7.90;99.90
35541;DHT22;21650;48.840;9.162;2023-03-26T03:46:18;7.90;99.90
35541;DHT22;21650;48.840;9.162;2023-03-26T03:48:43;7.90;99.90
35541;DHT22;21650;48.840;9.162;2023-03-26T03:51:15;7.90;99.90
35541;DHT22;21650;48.840;9.162;2023-03-26T03:53:40;7.90;99.90
35541;DHT22;21650;48.840;9.162;2023-03-26T03:56:06;8.00;99.90
35541;DHT22;21650;48.840;9.162;2023-03-26T03:58:35;8.00;99.90
35541;DHT22;21650;48.840;9.162;2023-03-26T04:01:01;8.00;99.90
35541;DHT22;21650;48.840;9.162;2023-03-26T04:03:27;8.00;99.90
35541;DHT22;21650;48.840;9.162;2023-03-26T04:05:53;8.00;99.90
35541;DHT22;21650;48.840;9.162;2023-03-26T04:08:20;8.10;99.90
35541;DHT22;21650;48.840;9.162;2023-03-26T04:10:47;8.00;99.90
35541;DHT22;21650;48.840;9.162;2023-03-26T04:13:14;8.10;99.90
35541;DHT22;21650;48.840;9.162;2023-03-26T04:15:40;8.10;99.90
35541;DHT22;21650;48.840;9.162;2023-03-26T04:18:06;8.00;99.90
35541;DHT22;21650;48.840;9.162;2023-03-26T04:20:39;8.10;99.90
35541;DHT22;21650;48.840;9.162;2023-03-26T04:23:06;8.00;99.90
35541;DHT22;21650;48.840;9.162;2023-03-26T04:25:33;8.10;99.90
35541;DHT22;21650;48.840;9.162;2023-03-26T04:28:02;8.10;99.90
35541;DHT22;21650;48.840;9.162;2023-03-26T04:30:32;8.10;99.90
35541;DHT22;21650;48.840;9.162;2023-03-26T04:33:03;8.10;99.90
35541;DHT22;21650;48.840;9.162;2023-03-26T04:35:31;8.10;99.90
35541;DHT22;21650;48.840;9.162;2023-03-26T04:38:02;8.10;99.90
35541;DHT22;21650;48.840;9.162;2023-03-26T04:40:32;8.10;99.90
35541;DHT22;21650;48.840;9.162;2023-03-26T04:43:00;8.10;99.90
35541;DHT22;21650;48.840;9.162;2023-03-26T04:45:27;8.10;99.90
35541;DHT22;21650;48.840;9.162;2023-03-26T04:47:55;8.10;99.90
35541;DHT22;21650;48.840;9.162;2023-03-26T04:50:23;8.00;99.90
35541;DHT22;21650;48.840;9.162;2023-03-26T04:52:49;8.00;99.90
35541;DHT22;21650;48.840;9.162;2023-03-26T04:55:24;8.00;99.90
35541;DHT22;21650;48.840;9.162;2023-03-26T04:57:56;8.10;99.90
35541;DHT22;21650;48.840;9.162;2023-03-26T05:00:24;8.10;99.90
35541;DHT22;21650;48.840;9.162;2023-03-26T05:02:51;8.10;99.90
35541;DHT22;21650;48.840;9.162;2023-03-26T05:05:17;8.20;99.90
35541;DHT22;21650;48.840;9.162;2023-03-26T05:07:44;8.10;99.90
35541;DHT22;21650;48.840;9.162;2023-03-26T05:10:13;8.10;99.90
35541;DHT22;21650;48.840;9.162;2023-03-26T05:12:39;8.20;99.90
35541;DHT22;21650;48.840;9.162;2023-03-26T05:15:05;8.20;99.90
35541;DHT22;21650;48.840;9.162;2023-03-26T05:17:31;8.30;99.90
35541;DHT22;21650;48.840;9.162;2023-03-26T05:19:59;8.30;99.90
35541;DHT22;21650;48.840;9.162;2023-03-26T05:22:25;8.30;99.90
35541;DHT22;21650;48.840;9.162;2023-03-26T05:24:50;8.40;99.90
35541;DHT22;21650;48.840;9.162;2023-03-26T05:27:16;8.40;99.90
35541;DHT22;21650;48.840;9.162;2023-03-26T05:29:44;8.40;99.90
35541;DHT22;21650;48.840;9.162;2023-03-26T05:32:10;8.50;99.90
35541;DHT22;21650;48.840;9.162;2023-03-26T05:34:37;8.40;99.90
35541;DHT22;21650;48.840;9.162;2023-03-26T05:37:03;8.40;99.90
35541;DHT22;21650;48.840;9.162;2023-03-26T05:39:29;8.40;99.90
35541;DHT22;21650;48.840;9.162;2023-03-26T05:41:54;8.40;99.90
35541;DHT22;21650;48.840;9.162;2023-03-26T05:44:20;8.40;99.90
35541;DHT22;21650;48.840;9.162;2023-03-26T05:46:46;8.40;99.90
35541;DHT22;21650;48.840;9.162;2023-03-26T05:49:11;8.40;99.90
35541;DHT22;21650;48.840;9.162;2023-03-26T05:51:37;8.40;99.90
35541;DHT22;21650;48.840;9.162;2023-03-26T05:54:03;8.50;99.90
35541;DHT22;21650;48.840;9.162;2023-03-26T05:56:28;8.50;99.90
35541;DHT22;21650;48.840;9.162;2023-03-26T05:58:55;8.50;99.90
35541;DHT22;21650;48.840;9.162;2023-03-26T06:01:21;8.50;99.90
35541;DHT22;21650;48.840;9.162;2023-03-26T06:03:47;8.50;99.90
35541;DHT22;21650;48.840;9.162;2023-03-26T06:06:15;8.50;99.90
35541;DHT22;21650;48.840;9.162;2023-03-26T06:08:46;8.50;99.90
35541;DHT22;21650;48.840;9.162;2023-03-26T06:11:14;8.40;99.90
35541;DHT22;21650;48.840;9.162;2023-03-26T06:13:40;8.40;99.90
35541;DHT22;21650;48.840;9.162;2023-03-26T06:16:07;8.40;99.90
35541;DHT22;21650;48.840;9.162;2023-03-26T06:18:33;8.30;99.90
35541;DHT22;21650;48.840;9.162;2023-03-26T06:20:58;8.30;99.90
35541;DHT22;21650;48.840;9.162;2023-03-26T06:23:24;8.20;99.90
35541;DHT22;21650;48.840;9.162;2023-03-26T06:25:50;8.20;99.90
35541;DHT22;21650;48.840;9.162;2023-03-26T06:28:16;8.20;99.90
35541;DHT22;21650;48.840;9.162;2023-03-26T06:30:42;8.20;99.90
35541;DHT22;21650;48.840;9.162;2023-03-26T06:33:08;8.30;99.90
35541;DHT22;21650;48.840;9.162;2023-03-26T06:35:33;8.30;99.90
35541;DHT22;21650;48.840;9.162;2023-03-26T06:37:59;8.40;99.90
35541;DHT22;21650;48.840;9.162;2023-03-26T06:40:25;8.50;99.90
35541;DHT22;21650;48.840;9.162;2023-03-26T06:42:50;8.50;99.90
35541;DHT22;21650;48.840;9.162;2023-03-26T06:45:16;8.50;99.90
35541;DHT22;21650;48.840;9.162;2023-03-26T06:47:42;8.50;99.90
35541;DHT22;21650;48.840;9.162;2023-03-26T06:50:08;8.60;99.90
35541;DHT22;21650;48.840;9.162;2023-03-26T06:52:36;8.60;99.90
35541;DHT22;21650;48.840;9.162;2023-03-26T06:55:02;8.60;99.90
35541;DHT22;21650;48.840;9.162;2023-03-26T06:57:27;8.60;99.90
35541;DHT22;21650;48.840;9.162;2023-03-26T06:59:53;8.70;99.90
35541;DHT22;21650;48.840;9.162;2023-03-26T07:02:18;8.60;99.90
35541;DHT22;21650;48.840;9.162;2023-03-26T07:04:44;8.60;99.90
35541;DHT22;21650;48.840;9.162;2023-03-26T07:07:10;8.60;99.90
35541;DHT22;21650;48.840;9.162;2023-03-26T07:09:36;8.70;99.90
35541;DHT22;21650;48.840;9.162;2023-03-26T07:12:02;8.70;99.90
35541;DHT22;21650;48.840;9.162;2023-03-26T07:14:28;8.60;99.90
35541;DHT22;21650;48.840;9.162;2023-03-26T07:16:56;8.70;99.90
35541;DHT22;21650;48.840;9.162;2023-03-26T07:19:22;8.60;99.90
35541;DHT22;21650;48.840;9.162;2023-03-26T07:21:48;8.60;99.90
35541;DHT22;21650;48.840;9.162;2023-03-26T07:24:14;8.60;99.90
35541;DHT22;21650;48.840;9.162;2023-03-26T07:27:01;8.60;99.90
35541;DHT22;21650;48.840;9.162;2023-03-26T07:32:19;8.70;99.90
35541;DHT22;21650;48.840;9.162;2023-03-26T07:35:03;8.70;99.90
35541;DHT22;21650;48.840;9.162;2023-03-26T07:37:39;8.70;99.90
35541;DHT22;21650;48.840;9.162;2023-03-26T07:40:36;8.70;99.90
35541;DHT22;21650;48.840;9.162;2023-03-26T07:45:42;8.60;99.90
35541;DHT22;21650;48.840;9.162;2023-03-26T07:48:30;8.60;99.90
35541;DHT22;21650;48.840;9.162;2023-03-26T07:51:01;8.50;99.90
35541;DHT22;21650;48.840;9.162;2023-03-26T07:53:28;8.40;99.90
35541;DHT22;21650;48.840;9.162;2023-03-26T08:02:31;8.20;99.90
35541;DHT22;21650;48.840;9.162;2023-03-26T08:07:28;8.10;99.90
35541;DHT22;21650;48.840;9.162;2023-03-26T08:10:10;8.20;99.90
35541;DHT22;21650;48.840;9.162;2023-03-26T08:13:08;8.20;99.90
35541;DHT22;21650;48.840;9.162;2023-03-26T08:15:48;8.10;99.90
35541;DHT22;21650;48.840;9.162;2023-03-26T08:18:46;8.10;99.90
35541;DHT22;21650;48.840;9.162;2023-03-26T08:21:27;8.10;99.90
35541;DHT22;21650;48.840;9.162;2023-03-26T08:26:53;8.10;99.90
35541;DHT22;21650;48.840;9.162;2023-03-26T08:29:43;8.10;99.90
35541;DHT22;21650;48.840;9.162;2023-03-26T08:32:17;8.10;99.90
35541;DHT22;21650;48.840;9.162;2023-03-26T08:34:43;8.10;99.90
35541;DHT22;21650;48.840;9.162;2023-03-26T08:37:08;8.10;99.90
35541;DHT22;21650;48.840;9.162;2023-03-26T08:39:35;8.10;99.90
35541;DHT22;21650;48.840;9.162;2023-03-26T08:55:56;8.10;99.90
35541;DHT22;21650;48.840;9.162;2023-03-26T08:58:49;8.10;99.90
35541;DHT22;21650;48.840;9.162;2023-03-26T09:01:57;8.20;99.90
35541;DHT22;21650;48.840;9.162;2023-03-26T09:04:56;8.30;99.90
35541;DHT22;21650;48.840;9.162;2023-03-26T09:13:04;8.20;99.90
35541;DHT22;21650;48.840;9.162;2023-03-26T09:19:31;8.20;99.90
35541;DHT22;21650;48.840;9.162;2023-03-26T09:22:16;8.20;99.90
35541;DHT22;21650;48.840;9.162;2023-03-26T09:30:51;8.70;99.90
35541;DHT22;21650;48.840;9.162;2023-03-26T09:33:31;8.90;99.90
35541;DHT22;21650;48.840;9.162;2023-03-26T09:36:19;9.10;99.90
35541;DHT22;21650;48.840;9.162;2023-03-26T09:38:52;9.30;99.90
35541;DHT22;21650;48.840;9.162;2023-03-26T09:44:37;9.70;99.90
35541;DHT22;21650;48.840;9.162;2023-03-26T09:49:32;10.30;99.90
35541;DHT22;21650;48.840;9.162;2023-03-26T10:00:17;10.40;99.90
35541;DHT22;21650;48.840;9.162;2023-03-26T10:02:53;10.50;99.90
35541;DHT22;21650;48.840;9.162;2023-03-26T10:05:46;10.70;99.90
35541;DHT22;21650;48.840;9.162;2023-03-26T10:16:37;11.00;99.90
35541;DHT22;21650;48.840;9.162;2023-03-26T10:19:14;11.40;99.90
35541;DHT22;21650;48.840;9.162;2023-03-26T10:32:52;12.30;99.90
35541;DHT22;21650;48.840;9.162;2023-03-26T10:35:40;12.10;99.90
35541;DHT22;21650;48.840;9.162;2023-03-26T10:41:43;11.60;99.90
35541;DHT22;21650;48.840;9.162;2023-03-26T10:44:26;11.70;99.90
35541;DHT22;21650;48.840;9.162;2023-03-26T10:47:00;11.60;99.90
35541;DHT22;21650;48.840;9.162;2023-03-26T10:49:40;11.60;99.90
35541;DHT22;21650;48.840;9.162;2023-03-26T10:52:18;11.70;99.90
35541;DHT22;21650;48.840;9.162;2023-03-26T10:55:03;11.70;99.90
35541;DHT22;21650;48.840;9.162;2023-03-26T10:57:47;12.00;99.90
35541;DHT22;21650;48.840;9.162;2023-03-26T11:00:17;12.10;99.90
35541;DHT22;21650;48.840;9.162;2023-03-26T11:08:32;12.10;99.90
35541;DHT22;21650;48.840;9.162;2023-03-26T11:11:38;12.50;99.90
35541;DHT22;21650;48.840;9.162;2023-03-26T11:16:56;12.90;99.90
35541;DHT22;21650;48.840;9.162;2023-03-26T11:19:36;13.40;99.90
35541;DHT22;21650;48.840;9.162;2023-03-26T11:22:20;13.20;99.90
35541;DHT22;21650;48.840;9.162;2023-03-26T11:33:47;14.00;99.90
35541;DHT22;21650;48.840;9.162;2023-03-26T11:36:22;13.90;99.30
35541;DHT22;21650;48.840;9.162;2023-03-26T11:38:52;13.50;99.90
35541;DHT22;21650;48.840;9.162;2023-03-26T11:41:22;13.30;99.90
35541;DHT22;21650;48.840;9.162;2023-03-26T11:44:00;13.20;99.90
35541;DHT22;21650;48.840;9.162;2023-03-26T11:46:29;13.20;99.90
35541;DHT22;21650;48.840;9.162;2023-03-26T11:48:59;13.00;99.90
35541;DHT22;21650;48.840;9.162;2023-03-26T11:51:35;13.10;99.90
35541;DHT22;21650;48.840;9.162;2023-03-26T11:54:01;13.10;99.90
35541;DHT22;21650;48.840;9.162;2023-03-26T11:56:50;12.80;99.90
35541;DHT22;21650;48.840;9.162;2023-03-26T11:59:41;12.60;99.90
35541;DHT22;21650;48.840;9.162;2023-03-26T12:02:15;12.20;99.90
35541;DHT22;21650;48.840;9.162;2023-03-26T12:04:49;11.80;99.90
35541;DHT22;21650;48.840;9.162;2023-03-26T12:07:22;11.50;99.90
35541;DHT22;21650;48.840;9.162;2023-03-26T12:09:52;11.10;99.90
35541;DHT22;21650;48.840;9.162;2023-03-26T12:12:21;10.80;99.90
35541;DHT22;21650;48.840;9.162;2023-03-26T12:14:49;10.40;99.90
35541;DHT22;21650;48.840;9.162;2023-03-26T12:17:30;10.20;99.90
35541;DHT22;21650;48.840;9.162;2023-03-26T12:19:57;10.30;99.90
35541;DHT22;21650;48.840;9.162;2023-03-26T12:22:35;10.50;99.90
35541;DHT22;21650;48.840;9.162;2023-03-26T12:27:57;11.70;99.90
35541;DHT22;21650;48.840;9.162;2023-03-26T12:30:34;12.20;99.90
35541;DHT22;21650;48.840;9.162;2023-03-26T12:33:23;12.10;99.90
35541;DHT22;21650;48.840;9.162;2023-03-26T12:35:53;12.10;99.90
35541;DHT22;21650;48.840;9.162;2023-03-26T12:38:30;12.30;99.90
35541;DHT22;21650;48.840;9.162;2023-03-26T12:43:35;11.80;99.90
35541;DHT22;21650;48.840;9.162;2023-03-26T12:46:09;11.70;99.90
35541;DHT22;21650;48.840;9.162;2023-03-26T12:48:43;11.60;99.90
35541;DHT22;21650;48.840;9.162;2023-03-26T12:51:30;11.60;99.90
35541;DHT22;21650;48.840;9.162;2023-03-26T12:54:24;12.10;99.90
35541;DHT22;21650;48.840;9.162;2023-03-26T12:57:24;12.40;99.90
35541;DHT22;21650;48.840;9.162;2023-03-26T13:00:27;12.90;99.90
35541;DHT22;21650;48.840;9.162;2023-03-26T13:05:57;13.90;99.90
35541;DHT22;21650;48.840;9.162;2023-03-26T13:11:23;13.60;99.90
35541;DHT22;21650;48.840;9.162;2023-03-26T13:19:55;13.00;99.90
35541;DHT22;21650;48.840;9.162;2023-03-26T13:25:52;12.70;99.90
35541;DHT22;21650;48.840;9.162;2023-03-26T13:28:38;12.70;99.90
35541;DHT22;21650;48.840;9.162;2023-03-26T13:33:49;12.80;99.90
35541;DHT22;21650;48.840;9.162;2023-03-26T13:36:29;13.30;99.90
35541;DHT22;21650;48.840;9.162;2023-03-26T13:39:18;13.70;99.90
35541;DHT22;21650;48.840;9.162;2023-03-26T13:44:52;14.30;99.90
35541;DHT22;21650;48.840;9.162;2023-03-26T13:47:24;13.90;99.90
35541;DHT22;21650;48.840;9.162;2023-03-26T13:50:01;13.30;99.90
35541;DHT22;21650;48.840;9.162;2023-03-26T13:52:38;13.10;99.90
35541;DHT22;21650;48.840;9.162;2023-03-26T13:55:21;12.90;99.90
35541;DHT22;21650;48.840;9.162;2023-03-26T14:05:49;12.70;99.90
35541;DHT22;21650;48.840;9.162;2023-03-26T14:08:29;12.70;99.90
35541;DHT22;21650;48.840;9.162;2023-03-26T14:16:58;12.80;99.90
35541;DHT22;21650;48.840;9.162;2023-03-26T14:19:42;12.90;99.90
35541;DHT22;21650;48.840;9.162;2023-03-26T14:22:47;12.80;99.90
35541;DHT22;21650;48.840;9.162;2023-03-26T14:39:28;11.90;99.90
35541;DHT22;21650;48.840;9.162;2023-03-26T14:42:10;11.70;99.90
35541;DHT22;21650;48.840;9.162;2023-03-26T14:47:20;10.90;99.90
35541;DHT22;21650;48.840;9.162;2023-03-26T14:50:14;10.40;99.90
35541;DHT22;21650;48.840;9.162;2023-03-26T14:52:51;10.20;99.90
35541;DHT22;21650;48.840;9.162;2023-03-26T15:00:54;10.20;99.90
35541;DHT22;21650;48.840;9.162;2023-03-26T15:04:02;10.20;99.90
35541;DHT22;21650;48.840;9.162;2023-03-26T15:07:06;10.20;99.90
35541;DHT22;21650;48.840;9.162;2023-03-26T15:23:56;8.90;99.90
35541;DHT22;21650;48.840;9.162;2023-03-26T15:26:52;8.90;99.90
35541;DHT22;21650;48.840;9.162;2023-03-26T15:29:42;8.70;99.90
35541;DHT22;21650;48.840;9.162;2023-03-26T15:49:39;8.60;99.90
35541;DHT22;21650;48.840;9.162;2023-03-26T15:52:31;8.60;99.90
35541;DHT22;21650;48.840;9.162;2023-03-26T15:55:26;8.40;99.90
35541;DHT22;21650;48.840;9.162;2023-03-26T16:09:26;8.60;99.90
35541;DHT22;21650;48.840;9.162;2023-03-26T16:17:18;8.50;99.90
35541;DHT22;21650;48.840;9.162;2023-03-26T16:20:12;8.50;
35541;DHT22;21650;48.840;9.162;2023-03-26T16:22:54;8.60;99.90
35541;DHT22;21650;48.840;9.162;2023-03-26T16:25:32;8.50;99.90
35541;DHT22;21650;48.840;9.162;2023-03-26T16:28:32;8.60;99.90
35541;DHT22;21650;48.840;9.162;2023-03-26T16:33:47;8.60;99.90
35541;DHT22;21650;48.840;9.162;2023-03-26T16:41:19;8.50;99.90
35541;DHT22;21650;48.840;9.162;2023-03-26T16:44:07;8.50;99.90
35541;DHT22;21650;48.840;9.162;2023-03-26T16:46:55;8.50;99.90
35541;DHT22;21650;48.840;9.162;2023-03-26T17:08:20;8.30;99.90
35541;DHT22;21650;48.840;9.162;2023-03-26T17:16:19;8.20;99.90
35541;DHT22;21650;48.840;9.162;2023-03-26T17:19:32;8.30;99.90
35541;DHT22;21650;48.840;9.162;2023-03-26T17:33:11;8.20;99.90
35541;DHT22;21650;48.840;9.162;2023-03-26T17:40:56;8.20;99.90
35541;DHT22;21650;48.840;9.162;2023-03-26T17:43:33;8.10;99.90
35541;DHT22;21650;48.840;9.162;2023-03-26T17:46:10;8.10;99.90
35541;DHT22;21650;48.840;9.162;2023-03-26T17:48:39;8.10;99.90
35541;DHT22;21650;48.840;9.162;2023-03-26T17:54:21;8.10;99.90
35541;DHT22;21650;48.840;9.162;2023-03-26T17:56:47;8.00;99.90
35541;DHT22;21650;48.840;9.162;2023-03-26T17:59:21;8.10;99.90
35541;DHT22;21650;48.840;9.162;2023-03-26T18:01:56;8.10;99.90
35541;DHT22;21650;48.840;9.162;2023-03-26T18:04:35;8.00;99.90
35541;DHT22;21650;48.840;9.162;2023-03-26T18:07:47;8.10;99.90
35541;DHT22;21650;48.840;9.162;2023-03-26T18:13:31;8.10;99.90
35541;DHT22;21650;48.840;9.162;2023-03-26T18:16:39;8.10;99.90
35541;DHT22;21650;48.840;9.162;2023-03-26T18:19:24;8.10;99.90
35541;DHT22;21650;48.840;9.162;2023-03-26T18:22:01;8.20;99.90
35541;DHT22;21650;48.840;9.162;2023-03-26T18:27:12;8.10;99.90
35541;DHT22;21650;48.840;9.162;2023-03-26T18:29:45;8.00;99.90
35541;DHT22;21650;48.840;9.162;2023-03-26T18:32:23;8.00;99.90
35541;DHT22;21650;48.840;9.162;2023-03-26T18:37:23;7.90;99.90
35541;DHT22;21650;48.840;9.162;2023-03-26T18:40:13;7.90;99.90
35541;DHT22;21650;48.840;9.162;2023-03-26T18:42:46;7.90;99.90
35541;DHT22;21650;48.840;9.162;2023-03-26T18:45:31;7.90;99.90
35541;DHT22;21650;48.840;9.162;2023-03-26T18:48:17;7.90;99.90
35541;DHT22;21650;48.840;9.162;2023-03-26T18:50:46;7.90;99.90
35541;DHT22;21650;48.840;9.162;2023-03-26T18:53:21;7.90;99.90
35541;DHT22;21650;48.840;9.162;2023-03-26T18:55:48;7.80;99.90
35541;DHT22;21650;48.840;9.162;2023-03-26T18:58:28;7.80;99.90
35541;DHT22;21650;48.840;9.162;2023-03-26T19:01:02;7.70;99.90
35541;DHT22;21650;48.840;9.162;2023-03-26T19:03:30;7.70;99.90
35541;DHT22;21650;48.840;9.162;2023-03-26T19:06:00;7.70;99.90
35541;DHT22;21650;48.840;9.162;2023-03-26T19:08:27;7.70;99.90
35541;DHT22;21650;48.840;9.162;2023-03-26T19:10:55;7.60;99.90
35541;DHT22;21650;48.840;9.162;2023-03-26T19:13:21;7.60;99.90
35541;DHT22;21650;48.840;9.162;2023-03-26T19:15:50;7.60;99.90
35541;DHT22;21650;48.840;9.162;2023-03-26T19:18:22;7.60;99.90
35541;DHT22;21650;48.840;9.162;2023-03-26T19:20:54;7.70;99.90
35541;DHT22;21650;48.840;9.162;2023-03-26T19:23:25;7.70;99.90
35541;DHT22;21650;48.840;9.162;2023-03-26T19:25:54;7.60;99.90
35541;DHT22;21650;48.840;9.162;2023-03-26T19:28:21;7.70;99.90
35541;DHT22;21650;48.840;9.162;2023-03-26T19:33:21;7.60;99.90
35541;DHT22;21650;48.840;9.162;2023-03-26T19:35:58;7.60;99.90
35541;DHT22;21650;48.840;9.162;2023-03-26T19:38:28;7.50;99.90
35541;DHT22;21650;48.840;9.162;2023-03-26T19:40:55;7.50;99.90
35541;DHT22;21650;48.840;9.162;2023-03-26T19:43:23;7.50;99.90
35541;DHT22;21650;48.840;9.162;2023-03-26T19:45:50;7.50;99.90
35541;DHT22;21650;48.840;9.162;2023-03-26T19:48:19;7.50;99.90
35541;DHT22;21650;48.840;9.162;2023-03-26T19:51:03;7.40;99.90
35541;DHT22;21650;48.840;9.162;2023-03-26T19:53:34;7.40;99.90
35541;DHT22;21650;48.840;9.162;2023-03-26T19:58:34;7.30;99.90
35541;DHT22;21650;48.840;9.162;2023-03-26T20:01:03;7.30;99.90
35541;DHT22;21650;48.840;9.162;2023-03-26T20:03:38;7.30;99.90
35541;DHT22;21650;48.840;9.162;2023-03-26T20:06:04;7.20;99.90
35541;DHT22;21650;48.840;9.162;2023-03-26T20:08:31;7.20;99.90
35541;DHT22;21650;48.840;9.162;2023-03-26T20:10:57;7.20;99.90
35541;DHT22;21650;48.840;9.162;2023-03-26T20:13:22;7.10;99.90
35541;DHT22;21650;48.840;9.162;2023-03-26T20:18:36;7.10;99.90
35541;DHT22;21650;48.840;9.162;2023-03-26T20:21:11;7.10;99.90
35541;DHT22;21650;48.840;9.162;2023-03-26T20:23:38;7.10;99.90
35541;DHT22;21650;48.840;9.162;2023-03-26T20:26:04;7.10;99.90
35541;DHT22;21650;48.840;9.162;2023-03-26T20:28:29;7.10;99.90
35541;DHT22;21650;48.840;9.162;2023-03-26T20:30:55;7.00;99.90
35541;DHT22;21650;48.840;9.162;2023-03-26T20:33:23;7.00;99.90
35541;DHT22;21650;48.840;9.162;2023-03-26T20:35:56;7.00;99.90
35541;DHT22;21650;48.840;9.162;2023-03-26T20:38:22;6.90;99.90
35541;DHT22;21650;48.840;9.162;2023-03-26T20:40:52;6.90;99.90
35541;DHT22;21650;48.840;9.162;2023-03-26T20:43:18;6.90;99.90
35541;DHT22;21650;48.840;9.162;2023-03-26T20:45:46;6.70;99.90
35541;DHT22;21650;48.840;9.162;2023-03-26T20:48:11;6.80;99.90
35541;DHT22;21650;48.840;9.162;2023-03-26T20:50:38;6.70;99.90
35541;DHT22;21650;48.840;9.162;2023-03-26T20:53:09;6.70;99.90
35541;DHT22;21650;48.840;9.162;2023-03-26T20:55:35;6.70;99.90
35541;DHT22;21650;48.840;9.162;2023-03-26T20:58:00;6.70;99.90
35541;DHT22;21650;48.840;9.162;2023-03-26T21:00:28;6.70;99.90
35541;DHT22;21650;48.840;9.162;2023-03-26T21:02:54;6.80;99.90
35541;DHT22;21650;48.840;9.162;2023-03-26T21:05:22;6.80;99.90
35541;DHT22;21650;48.840;9.162;2023-03-26T21:07:53;6.80;99.90
35541;DHT22;21650;48.840;9.162;2023-03-26T21:10:20;6.80;99.90
35541;DHT22;21650;48.840;9.162;2023-03-26T21:15:15;6.80;99.90
35541;DHT22;21650;48.840;9.162;2023-03-26T21:17:41;6.90;99.90
35541;DHT22;21650;48.840;9.162;2023-03-26T21:20:08;6.90;99.90
35541;DHT22;21650;48.840;9.162;2023-03-26T21:30:31;7.00;99.90
35541;DHT22;21650;48.840;9.162;2023-03-26T21:32:57;7.00;99.90